Latest Weather Observations for Holsworthy

IDN60901

Issued at 3:21 pm EDT Saturday 13 February 2016 (issued every 10 minutes, with the page automatically refreshed every 10 minutes)

About weather observations | Map of Sydney area stations | Latest observations for Sydney area | Other Formats
Station Details ID: 066161 Name: HOLSWORTHY AERODROME AWS Lat: -33.99 Lon: 150.95 Height: 68.16 m
Data from the previous 72 hours. | See also: Recent months at Holsworthy
Date/Time
EDT
Tmp

°C
App
Tmp
°C
Dew
Point
°C
Rel
Hum
%
Delta-T

°C
Wind Press
QNH
hPa
Press
MSL
hPa
Rain
since
9 am
mm
Dir
 
Spd
km/h
Gust
km/h
Spd
kts
Gust
kts
13/03:00pm 32.4 31.7 15.4 36 10.6 NNE 13 20 7 11 1010.7 1010.4 0.0
13/02:30pm 31.5 30.7 15.0 36 10.2 N 13 20 7 11 1011.3 1011.0 0.0
13/02:00pm 31.4 31.0 16.2 40 9.5 NE 13 20 7 11 1011.8 1011.5 0.0
13/01:30pm 30.2 29.3 15.9 42 8.9 NNE 15 24 8 13 1012.2 1011.9 0.0
13/01:00pm 29.3 28.8 15.8 44 8.4 NNE 13 20 7 11 1012.8 1012.5 0.0
13/12:30pm 28.8 28.6 16.7 48 7.6 NNE 13 20 7 11 1013.2 1012.9 0.0
13/12:00pm 28.4 28.6 17.6 52 6.8 N 13 20 7 11 1013.6 1013.3 0.0
13/11:30am 27.1 26.5 16.7 53 6.5 N 15 20 8 11 1013.9 1013.6 0.0
13/11:00am 26.5 26.4 17.0 56 5.9 N 13 22 7 12 1014.2 1013.9 0.0
13/10:30am 26.2 26.1 17.0 57 5.7 N 13 19 7 10 1014.4 1014.1 0.0
13/10:00am 25.4 25.2 16.8 59 5.3 NNE 13 20 7 11 1014.4 1014.1 0.0
13/09:30am 24.8 24.9 17.5 64 4.6 N 13 19 7 10 1014.5 1014.2 0.0
13/09:00am 23.9 25.4 18.8 73 3.2 N 9 13 5 7 1014.7 1014.4 0.0
13/08:30am 22.7 24.6 18.9 79 2.4 NNW 7 11 4 6 1015.0 1014.7 0.0
13/08:00am 22.1 25.3 18.9 82 2.0 CALM 0 7 0 4 1014.8 1014.5 0.0
13/07:30am 20.6 24.0 19.3 92 0.8 CALM 0 0 0 0 1014.7 1014.4 0.0
13/07:00am 19.4 22.3 18.2 93 0.7 CALM 0 0 0 0 1014.5 1014.2 0.0
13/06:30am 19.1 21.8 17.8 92 0.8 CALM 0 0 0 0 1014.4 1014.1 0.0
13/06:00am 19.0 21.6 17.5 91 0.9 CALM 0 0 0 0 1014.2 1013.9 0.0
13/05:30am 19.5 22.2 17.8 90 1.0 CALM 0 0 0 0 1014.0 1013.7 0.0
13/05:00am 20.2 23.1 18.3 89 1.2 CALM 0 0 0 0 1014.0 1013.7 0.0
13/04:30am 20.6 23.6 18.5 88 1.3 CALM 0 0 0 0 1014.1 1013.8 0.0
13/04:00am 21.0 24.2 18.9 88 1.3 CALM 0 0 0 0 1014.4 1014.1 0.0
13/03:30am 21.1 23.9 18.9 87 1.4 NNE 2 6 1 3 1014.4 1014.1 0.0
13/03:00am 21.2 23.3 18.9 87 1.5 NNE 6 9 3 5 1014.6 1014.3 0.0
13/02:30am 21.3 23.3 18.7 85 1.6 N 6 9 3 5 1014.7 1014.4 0.0
13/02:00am 21.8 23.9 19.0 84 1.8 NE 6 7 3 4 1015.0 1014.7 0.0
13/01:30am 22.0 23.9 19.0 83 1.9 NNE 7 9 4 5 1015.2 1014.9 0.0
13/01:00am 22.4 24.5 19.4 83 1.9 NNE 7 13 4 7 1015.4 1015.1 0.0
13/12:30am 22.7 24.9 19.5 82 2.0 N 7 11 4 6 1015.7 1015.4 0.0
13/12:00am 23.0 24.8 19.6 81 2.2 NNE 9 13 5 7 1015.8 1015.5 0.0
 
Date/Time
EDT
Tmp

°C
App
Tmp
°C
Dew
Point
°C
Rel
Hum
%
Delta-T

°C
Wind Press
QNH
hPa
Press
MSL
hPa
Rain
since
9 am
mm
Dir
 
Spd
km/h
Gust
km/h
Spd
kts
Gust
kts
12/11:30pm 22.9 25.0 19.3 80 2.3 NNE 7 13 4 7 1015.7 1015.4 0.0
12/11:00pm 23.0 25.1 19.4 80 2.3 NE 7 13 4 7 1015.7 1015.4 0.0
12/10:30pm 23.2 24.9 19.4 79 2.4 NE 9 17 5 9 1016.0 1015.7 0.0
12/10:00pm 23.2 25.4 19.6 80 2.3 ENE 7 13 4 7 1016.2 1015.9 0.0
12/09:30pm 22.9 24.6 19.3 80 2.3 ENE 9 13 5 7 1015.8 1015.5 0.0
12/09:00pm 23.4 24.8 19.5 79 2.5 ENE 11 17 6 9 1015.4 1015.1 0.0
12/08:30pm 23.6 24.8 19.1 76 2.9 ENE 11 17 6 9 1015.1 1014.8 0.0
12/08:00pm 24.3 25.0 18.9 72 3.4 E 13 19 7 10 1015.1 1014.8 0.0
12/07:30pm 24.9 25.6 18.8 69 3.9 ENE 13 20 7 11 1014.8 1014.5 0.0
12/07:00pm 25.8 25.9 19.2 67 4.2 E 17 24 9 13 1014.4 1014.1 0.0
12/06:30pm 26.6 26.3 19.2 64 4.8 E 19 28 10 15 1014.1 1013.8 0.0
12/06:00pm 27.5 26.9 18.5 58 5.8 ENE 19 26 10 14 1013.9 1013.6 0.0
12/05:30pm 27.6 26.7 18.3 57 5.9 E 20 28 11 15 1013.8 1013.5 0.0
12/05:00pm 28.5 27.6 17.7 52 6.9 E 19 30 10 16 1013.8 1013.5 0.0
12/04:30pm 28.6 27.8 18.4 54 6.5 E 20 33 11 18 1013.8 1013.5 0.0
12/04:00pm 28.4 27.1 18.2 54 6.5 E 22 33 12 18 1013.9 1013.6 0.0
12/03:30pm 28.8 28.5 18.3 53 6.7 E 17 26 9 14 1014.4 1014.1 0.0
12/03:00pm 29.1 28.5 18.8 53 6.7 E 20 28 11 15 1014.6 1014.3 0.0
12/02:30pm 29.6 29.0 18.4 51 7.2 E 19 26 10 14 1014.8 1014.5 0.0
12/02:00pm 29.0 28.4 17.5 49 7.3 E 17 24 9 13 1015.1 1014.8 0.0
12/01:30pm 28.6 28.5 17.8 52 6.9 E 15 22 8 12 1015.4 1015.1 0.0
12/01:00pm 28.3 27.8 16.9 50 7.1 ENE 15 20 8 11 1015.6 1015.3 0.0
12/12:30pm 28.1 29.4 17.6 53 6.6 NNE 7 13 4 7 1016.2 1015.9 0.0
12/12:00pm 27.7 27.7 17.3 53 6.5 ENE 13 17 7 9 1016.6 1016.3 0.0
12/11:30am 27.5 27.2 16.5 51 6.8 NNE 13 24 7 13 1016.7 1016.4 0.0
12/11:00am 27.0 27.5 17.5 56 6.0 NE 11 17 6 9 1016.9 1016.6 0.0
12/10:30am 26.3 26.9 17.6 58 5.5 NE 11 17 6 9 1017.1 1016.8 0.0
12/10:00am 26.1 27.4 18.5 63 4.8 NNE 9 19 5 10 1017.3 1017.0 0.0
12/09:30am 25.2 26.9 18.6 67 4.2 NNW 7 11 4 6 1017.3 1017.0 0.0
12/09:00am 24.5 26.9 18.7 70 3.7 WNW 4 9 2 5 1017.3 1017.0 0.0
12/08:30am 23.1 26.3 19.7 81 2.2 NE 2 7 1 4 1017.2 1016.9 0.0
12/08:00am 21.7 25.0 19.1 85 1.6 CALM 0 0 0 0 1016.9 1016.6 0.0
12/07:30am 21.0 23.2 19.3 90 1.1 SE 6 7 3 4 1016.6 1016.3 0.0
12/07:00am 19.3 21.0 18.0 92 0.8 SE 6 7 3 4 1016.2 1015.9 0.0
12/06:30am 18.8 21.3 17.3 91 0.9 CALM 0 6 0 3 1016.0 1015.7 0.0
12/06:00am 19.3 21.2 17.6 90 1.0 S 4 6 2 3 1015.7 1015.4 0.0
12/05:30am 19.5 21.1 17.8 90 1.0 S 6 7 3 4 1015.3 1015.0 0.0
12/05:00am 20.0 21.6 18.3 90 1.1 ESE 7 9 4 5 1015.0 1014.7 0.0
12/04:30am 20.4 21.8 18.7 90 1.1 SE 9 11 5 6 1015.2 1014.9 0.0
12/04:00am 20.7 22.2 18.8 89 1.2 SSE 9 9 5 5 1015.1 1014.8 0.0
12/03:30am 20.8 22.2 18.7 88 1.3 SSE 9 9 5 5 1015.3 1015.0 0.0
12/03:00am 20.7 22.6 18.6 88 1.3 SSE 6 7 3 4 1015.4 1015.1 0.0
12/02:30am 20.3 23.1 17.9 86 1.5 CALM 0 0 0 0 1015.6 1015.3 0.0
12/02:00am 21.3 23.2 18.9 86 1.5 SSE 7 9 4 5 1015.8 1015.5 0.0
12/01:30am 21.6 23.1 19.0 85 1.6 SSE 9 11 5 6 1015.9 1015.6 0.0
12/01:00am 21.6 23.3 18.6 83 1.9 SSE 7 9 4 5 1016.0 1015.7 0.0
12/12:30am 22.0 23.8 18.8 82 2.0 SE 7 7 4 4 1016.1 1015.8 0.0
12/12:00am 22.2 24.4 19.2 83 1.9 NE 6 9 3 5 1016.1 1015.8 0.0
 
Date/Time
EDT
Tmp

°C
App
Tmp
°C
Dew
Point
°C
Rel
Hum
%
Delta-T

°C
Wind Press
QNH
hPa
Press
MSL
hPa
Rain
since
9 am
mm
Dir
 
Spd
km/h
Gust
km/h
Spd
kts
Gust
kts
11/11:30pm 22.3 25.6 19.1 82 2.0 CALM 0 0 0 0 1016.6 1016.3 0.0
11/11:00pm 22.4 25.6 18.8 80 2.3 CALM 0 4 0 2 1016.7 1016.4 0.0
11/10:30pm 23.0 25.9 19.0 78 2.5 NE 2 7 1 4 1016.8 1016.5 0.0
11/10:00pm 23.1 25.1 18.8 77 2.7 ENE 6 9 3 5 1016.5 1016.2 0.0
11/09:30pm 23.7 25.0 19.2 76 2.9 E 11 15 6 8 1016.4 1016.1 0.0
11/09:00pm 23.8 25.5 19.3 76 2.9 E 9 15 5 8 1015.9 1015.6 0.0
11/08:30pm 23.7 25.2 18.8 74 3.1 ESE 9 13 5 7 1015.4 1015.1 0.0
11/08:00pm 23.7 24.7 18.6 73 3.2 ENE 11 15 6 8 1015.2 1014.9 0.0
11/07:30pm 24.3 25.3 19.4 74 3.1 ESE 13 17 7 9 1015.0 1014.7 0.0
11/07:00pm 24.2 25.0 19.1 73 3.3 ESE 13 19 7 10 1014.8 1014.5 0.0
11/06:30pm 24.4 24.2 18.6 70 3.7 ESE 17 26 9 14 1013.9 1013.6 0.0
11/06:00pm 24.6 24.3 18.3 68 4.0 E 17 24 9 13 1013.9 1013.6 0.0
11/05:30pm 24.7 23.8 18.2 67 4.1 E 20 30 11 16 1014.1 1013.8 0.0
11/05:00pm 25.1 24.2 18.1 65 4.4 E 20 30 11 16 1013.8 1013.5 0.0
11/04:30pm 26.2 25.3 18.1 61 5.1 ESE 20 28 11 15 1013.7 1013.4 0.0
11/04:00pm 26.8 25.7 17.8 57 5.7 E 20 33 11 18 1013.6 1013.3 0.0
11/03:30pm 27.5 26.6 18.2 57 5.9 E 20 30 11 16 1013.6 1013.3 0.0
11/03:00pm 28.5 27.8 18.6 55 6.4 E 20 28 11 15 1013.9 1013.6 0.0
11/02:30pm 28.7 28.2 17.9 52 6.9 E 17 24 9 13 1014.2 1013.9 0.0
11/02:00pm 28.5 27.4 16.4 48 7.5 ENE 17 24 9 13 1014.6 1014.3 0.0
11/01:30pm 28.9 28.2 16.5 47 7.7 NE 15 22 8 12 1014.8 1014.5 0.0
11/01:00pm 28.1 27.3 16.1 48 7.4 E 15 24 8 13 1015.0 1014.7 0.0
11/12:30pm 28.0 26.6 15.6 46 7.6 NE 17 24 9 13 1015.3 1015.0 0.0
11/12:00pm 27.1 26.4 16.4 52 6.6 ENE 15 20 8 11 1015.6 1015.3 0.0
11/11:30am 27.0 27.3 18.0 58 5.7 ESE 13 20 7 11 1015.7 1015.4 0.0
11/11:00am 26.2 26.1 17.0 57 5.7 ESE 13 19 7 10 1015.8 1015.5 0.0
11/10:30am 25.7 26.0 17.9 62 4.9 ENE 13 20 7 11 1015.8 1015.5 0.0
11/10:00am 24.7 25.8 17.9 66 4.3 N 9 15 5 8 1015.8 1015.5 0.0
11/09:30am 24.6 26.2 17.8 66 4.3 NE 6 11 3 6 1016.0 1015.7 0.0
11/09:00am 23.7 25.7 17.9 70 3.6 NNE 4 9 2 5 1016.1 1015.8 0.0
11/08:30am 22.3 24.1 18.3 78 2.5 WSW 6 9 3 5 1016.0 1015.7 0.0
11/08:00am 20.7 23.7 18.5 87 1.4 CALM 0 0 0 0 1015.7 1015.4 0.0
11/07:30am 18.7 21.1 16.9 89 1.1 CALM 0 0 0 0 1015.2 1014.9 0.0
11/07:00am 17.7 18.9 16.0 90 1.0 S 4 6 2 3 1014.6 1014.3 0.0
11/06:30am 18.0 18.4 16.3 90 1.0 SE 9 9 5 5 1014.2 1013.9 0.0
11/06:00am 18.2 18.7 16.5 90 1.0 SSE 9 9 5 5 1014.0 1013.7 0.0
11/05:30am 18.2 18.6 16.4 89 1.1 SSE 9 9 5 5 1013.7 1013.4 0.0
11/05:00am 18.1 18.9 16.3 89 1.1 SE 7 9 4 5 1013.5 1013.2 0.0
11/04:30am 18.2 19.2 16.4 89 1.1 SE 6 7 3 4 1013.2 1012.9 0.0
11/04:00am 18.3 19.3 16.3 88 1.2 SE 6 7 3 4 1013.2 1012.9 0.0
11/03:30am 18.6 19.7 16.6 88 1.2 SE 6 7 3 4 1013.3 1013.0 0.0
11/03:00am 18.8 19.9 16.6 87 1.3 SSE 6 7 3 4 1013.5 1013.2 0.0
11/02:30am 19.2 20.3 16.6 85 1.6 SSE 6 7 3 4 1013.7 1013.4 0.0
11/02:00am 19.6 20.6 16.8 84 1.7 SSE 7 9 4 5 1013.8 1013.5 0.0
11/01:30am 20.0 21.0 16.8 82 1.9 ESE 7 7 4 4 1014.0 1013.7 0.0
11/01:00am 20.9 22.1 16.9 78 2.4 ENE 6 7 3 4 1014.0 1013.7 0.0
11/12:30am 21.2 22.5 17.0 77 2.6 NE 6 7 3 4 1014.2 1013.9 0.0
11/12:00am 21.6 22.9 17.2 76 2.7 E 6 7 3 4 1014.6 1014.3 0.0
 
Date/Time
EDT
Tmp

°C
App
Tmp
°C
Dew
Point
°C
Rel
Hum
%
Delta-T

°C
Wind Press
QNH
hPa
Press
MSL
hPa
Rain
since
9 am
mm
Dir
 
Spd
km/h
Gust
km/h
Spd
kts
Gust
kts
10/11:30pm 21.5 22.2 17.1 76 2.7 NE 9 15 5 8 1014.4 1014.1 0.0
10/11:00pm 21.9 22.6 17.1 74 2.9 NE 9 15 5 8 1014.5 1014.2 0.0
10/10:30pm 22.0 22.8 17.2 74 3.0 NE 9 13 5 7 1014.6 1014.3 0.0
10/10:00pm 22.2 22.9 17.1 73 3.1 NE 9 20 5 11 1014.2 1013.9 0.0
10/09:30pm 22.5 23.1 17.8 75 2.9 ENE 11 17 6 9 1014.0 1013.7 0.0
10/09:00pm 22.8 23.2 18.1 75 2.9 ENE 13 19 7 10 1013.7 1013.4 0.0
10/08:30pm 23.1 23.5 18.2 74 3.1 ENE 13 17 7 9 1013.5 1013.2 0.0
10/08:00pm 23.6 23.6 18.0 71 3.5 ENE 15 24 8 13 1013.1 1012.8 0.0
10/07:30pm 24.6 24.6 17.3 64 4.5 E 13 20 7 11 1012.6 1012.3 0.0
10/07:00pm 25.5 24.4 17.4 61 5.1 ENE 19 28 10 15 1012.4 1012.1 0.0
10/06:30pm 26.5 25.5 17.6 58 5.6 ENE 19 28 10 15 1011.9 1011.6 0.0
10/06:00pm 27.3 26.8 17.8 56 6.0 ENE 17 24 9 13 1011.8 1011.5 0.0
10/05:30pm 27.8 27.2 17.6 53 6.5 ENE 17 24 9 13 1011.8 1011.5 0.0
10/05:00pm 28.2 27.0 17.4 52 6.8 ENE 20 30 11 16 1011.6 1011.3 0.0
10/04:30pm 28.8 27.0 17.0 49 7.4 E 22 30 12 16 1011.6 1011.3 0.0
10/04:00pm 29.6 28.8 17.1 47 7.9 NE 17 26 9 14 1011.8 1011.5 0.0
10/03:30pm 30.0 30.0 17.1 46 8.2 NE 13 20 7 11 1012.1 1011.8 0.0

Latest Capital City Observations: Canberra | Sydney | Melbourne | Brisbane | Adelaide | Perth | Hobart | Darwin

Other Formats:

Comma delimited format used in spreadsheet applications
http://www.bom.gov.au/fwo/IDN60901/IDN60901.95761.axf

JavaScript Object Notation format (JSON) in row-major order
http://www.bom.gov.au/fwo/IDN60901/IDN60901.95761.json